< < Back
Terminal Aerodrome Forecast


Current Version              Previous Versions:   1  2  3  4  5  6  7  8  9  

Terminal Aerodrome Forecast

955
FTUS42 KFFC 250339 AAA
TAFMCN
TAF AMD
KMCN 250339Z 2504/2524 00000KT P6SM SCT090
     FM250600 00000KT P6SM SKC
     FM251500 21004KT P6SM SCT035
     FM251800 22006KT P6SM VCSH SCT050 PROB30 2519/2522 6SM -TSRA
      BKN040CB=

Latest METAR

141
SAUS80 KWBC 251700 RRB
MTRMCN
METAR KMCN 251653Z 00000KT 10SM BKN060 BKN070 34/21 A3004 RMK AO2 SLP167
T03390211


USA.gov is the U.S. government's official web portal to all federal, state and local government web resources and services.